Time;durP1;ratioP1;P1;durP2;ratioP2;P2;SDS_P1;SDS_P2;PMS_P1;PMS_P2;Temp;Humidity;BMP_temperature;BMP_pressure;BME280_temperature;BME280_humidity;BME280_pressure;Samples;Min_cycle;Max_cycle;Signal;HPM_P1;HPM_P2
2023/08/30 00:00:49;;;;;;;;;;;;;;;-140.72;100.00;52731.75;6277098;22;19922;-69
2023/08/30 00:03:18;;;;;;;;;;;;;;;-140.72;100.00;52735.81;6277167;22;19911;-69
2023/08/30 00:05:43;;;;;;;;;;;;;;;-140.72;100.00;52727.72;6277362;22;19937;-68
2023/08/30 00:08:10;;;;;;;;;;;;;;;-140.72;100.00;52766.25;6276770;22;19911;-69
2023/08/30 00:10:35;;;;;;;;;;;;;;;-140.72;100.00;52770.31;6277357;22;20225;-69
2023/08/30 00:13:00;;;;;;;;;;;;;;;-140.72;100.00;52723.66;6277217;22;19919;-67
2023/08/30 00:15:26;;;;;;;;;;;;;;;-140.72;100.00;52756.13;6277571;22;19923;-68
2023/08/30 00:17:53;;;;;;;;;;;;;;;-140.72;100.00;52750.03;6275904;22;20275;-68
2023/08/30 00:20:19;;;;;;;;;;;;;;;-140.72;100.00;52739.88;6277066;22;19986;-69
2023/08/30 00:22:50;;;;;;;;;;;;;;;-140.72;100.00;52739.88;6276974;22;19911;-68
2023/08/30 00:25:16;;;;;;;;;;;;;;;-140.72;100.00;52715.53;6301666;22;19911;-68
2023/08/30 00:27:41;;;;;;;;;;;;;;;-140.72;100.00;52770.31;6275222;22;19915;-68
2023/08/30 00:30:08;;;;;;;;;;;;;;;-140.72;100.00;52776.41;6275282;22;20017;-68
2023/08/30 00:32:33;;;;;;;;;;;;;;;-140.72;100.00;52739.88;6274996;22;19915;-68
2023/08/30 00:34:58;;;;;;;;;;;;;;;-140.72;100.00;52731.75;6275836;22;20240;-68
2023/08/30 00:37:24;;;;;;;;;;;;;;;-140.72;100.00;52715.53;6300376;22;20221;-69
2023/08/30 00:39:51;;;;;;;;;;;;;;;-140.72;100.00;52743.94;6275234;22;21438;-68
2023/08/30 00:42:16;;;;;;;;;;;;;;;-140.72;100.00;52768.28;6276753;22;19961;-68
2023/08/30 00:44:41;;;;;;;;;;;;;;;-140.72;100.00;52719.59;6301505;22;19911;-68
2023/08/30 00:47:06;;;;;;;;;;;;;;;-140.72;100.00;52745.97;6278886;22;19916;-68
2023/08/30 00:49:32;;;;;;;;;;;;;;;-140.72;100.00;52748.00;6279551;22;19993;-68
2023/08/30 00:51:58;;;;;;;;;;;;;;;-140.72;100.00;52727.72;6278918;22;19986;-67
2023/08/30 00:54:23;;;;;;;;;;;;;;;-140.72;100.00;52758.16;6278692;22;19994;-68
2023/08/30 00:56:50;;;;;;;;;;;;;;;-140.72;100.00;52723.66;6279148;22;19951;-67
2023/08/30 00:59:15;;;;;;;;;;;;;;;-140.72;100.00;52719.59;6304754;22;20326;-67
2023/08/30 01:01:41;;;;;;;;;;;;;;;-140.72;100.00;52772.34;6278124;22;19986;-68
2023/08/30 01:04:06;;;;;;;;;;;;;;;-140.72;100.00;52679.00;6304060;22;19976;-68
2023/08/30 01:06:31;;;;;;;;;;;;;;;-140.72;100.00;52741.91;6279618;22;19920;-68
2023/08/30 01:09:04;;;;;;;;;;;;;;;-140.72;100.00;52723.66;6279537;22;19911;-68
2023/08/30 01:11:35;;;;;;;;;;;;;;;-140.72;100.00;52733.78;6280076;22;20230;-68
2023/08/30 01:14:04;;;;;;;;;;;;;;;-140.72;100.00;52735.81;6279543;22;19917;-68
2023/08/30 01:16:30;;;;;;;;;;;;;;;-140.72;100.00;52707.41;6277596;22;19911;-68
2023/08/30 01:18:56;;;;;;;;;;;;;;;-140.72;100.00;52713.50;6279912;22;20307;-68
2023/08/30 01:21:29;;;;;;;;;;;;;;;-140.72;100.00;52713.50;6280326;22;19965;-68
2023/08/30 01:24:03;;;;;;;;;;;;;;;-140.72;100.00;52735.81;6280316;22;19983;-67
2023/08/30 01:26:38;;;;;;;;;;;;;;;-140.72;100.00;52792.66;6280052;22;20251;-68
2023/08/30 01:29:04;;;;;;;;;;;;;;;-140.72;100.00;52748.00;6280113;22;20233;-68
2023/08/30 01:31:33;;;;;;;;;;;;;;;-140.72;100.00;52741.91;6279711;22;19937;-68
2023/08/30 01:33:58;;;;;;;;;;;;;;;-140.72;100.00;52774.38;6279711;22;19933;-68
2023/08/30 01:36:24;;;;;;;;;;;;;;;-140.72;100.00;52731.75;6278721;22;20344;-68
2023/08/30 01:38:50;;;;;;;;;;;;;;;-140.72;100.00;52756.13;6279673;22;19922;-68
2023/08/30 01:41:15;;;;;;;;;;;;;;;-140.72;100.00;52731.75;6279658;22;20302;-68
2023/08/30 01:43:41;;;;;;;;;;;;;;;-140.72;100.00;52733.78;6279415;22;19973;-68
2023/08/30 01:46:07;;;;;;;;;;;;;;;-140.72;100.00;52748.00;6278071;22;19958;-68
2023/08/30 01:48:33;;;;;;;;;;;;;;;-140.72;100.00;52741.91;6279364;22;20346;-68
2023/08/30 01:51:00;;;;;;;;;;;;;;;-140.72;100.00;52729.75;6278152;22;19977;-69
2023/08/30 01:53:26;;;;;;;;;;;;;;;-140.72;100.00;52729.75;6279735;22;19911;-71
2023/08/30 01:55:52;;;;;;;;;;;;;;;-140.72;100.00;52687.13;6279562;22;20248;-68
2023/08/30 01:58:18;;;;;;;;;;;;;;;-140.72;100.00;52731.75;6275775;22;19923;-68
2023/08/30 02:00:43;;;;;;;;;;;;;;;-140.72;100.00;52745.97;6278344;22;19911;-69
2023/08/30 02:03:12;;;;;;;;;;;;;;;-140.72;100.00;52703.34;6277879;22;19916;-69
2023/08/30 02:05:56;;;;;;;;;;;;;;;-140.72;100.00;52743.94;6278544;22;20291;-69
2023/08/30 02:08:26;;;;;;;;;;;;;;;-140.72;100.00;52717.56;6277379;22;19917;-69
2023/08/30 02:10:55;;;;;;;;;;;;;;;-140.72;100.00;52764.25;6301851;22;19964;-69
2023/08/30 02:13:24;;;;;;;;;;;;;;;-140.72;100.00;52737.84;6278034;22;19923;-69
2023/08/30 02:15:50;;;;;;;;;;;;;;;-140.72;100.00;52683.06;6277847;22;20333;-69
2023/08/30 02:18:15;;;;;;;;;;;;;;;-140.72;100.00;52784.53;6276380;22;19911;-68
2023/08/30 02:20:41;;;;;;;;;;;;;;;-140.72;100.00;52748.00;6302038;22;19915;-68
2023/08/30 02:23:06;;;;;;;;;;;;;;;-140.72;100.00;52719.59;6276381;22;19915;-68
2023/08/30 02:25:31;;;;;;;;;;;;;;;-140.72;100.00;52729.75;6277765;22;19911;-68
2023/08/30 02:27:56;;;;;;;;;;;;;;;-140.72;100.00;52748.00;6277371;22;19958;-68
2023/08/30 02:30:21;;;;;;;;;;;;;;;-140.72;100.00;52695.25;6276364;22;20329;-67
2023/08/30 02:32:47;;;;;;;;;;;;;;;-140.72;100.00;52733.78;6276662;22;19923;-67
2023/08/30 02:35:12;;;;;;;;;;;;;;;-140.72;100.00;52739.88;6277419;22;19922;-68
2023/08/30 02:37:37;;;;;;;;;;;;;;;-140.72;100.00;52752.06;6277927;22;19965;-68
2023/08/30 02:40:02;;;;;;;;;;;;;;;-140.72;100.00;52750.03;6276206;22;19918;-68
2023/08/30 02:42:28;;;;;;;;;;;;;;;-140.72;100.00;52743.94;6277450;22;19942;-68
2023/08/30 02:44:53;;;;;;;;;;;;;;;-140.72;100.00;52750.03;6277407;22;19918;-67
2023/08/30 02:47:18;;;;;;;;;;;;;;;-140.72;100.00;52762.22;6275747;22;20382;-68
2023/08/30 02:49:44;;;;;;;;;;;;;;;-140.72;100.00;52741.91;6300181;22;20683;-68
2023/08/30 02:52:09;;;;;;;;;;;;;;;-140.72;100.00;52735.81;6275827;22;20247;-67
2023/08/30 02:54:34;;;;;;;;;;;;;;;-140.72;100.00;52752.06;6276379;22;19911;-68
2023/08/30 02:57:00;;;;;;;;;;;;;;;-140.72;100.00;52739.88;6276644;22;19918;-69
2023/08/30 02:59:25;;;;;;;;;;;;;;;-140.72;100.00;52756.13;6274305;22;19986;-69
2023/08/30 03:01:50;;;;;;;;;;;;;;;-140.72;100.00;52717.56;6274310;22;19997;-68
2023/08/30 03:04:15;;;;;;;;;;;;;;;-140.72;100.00;52743.94;6299580;22;19915;-68
2023/08/30 03:06:41;;;;;;;;;;;;;;;-140.72;100.00;52756.13;6276851;22;19911;-69
2023/08/30 03:09:06;;;;;;;;;;;;;;;-140.72;100.00;52733.78;6275484;22;20328;-68
2023/08/30 03:11:32;;;;;;;;;;;;;;;-140.72;100.00;52788.59;6277442;22;20342;-68
2023/08/30 03:13:58;;;;;;;;;;;;;;;-140.72;100.00;52743.94;6275661;22;19915;-69
2023/08/30 03:16:23;;;;;;;;;;;;;;;-140.72;100.00;52754.09;6277412;22;20229;-68
2023/08/30 03:18:50;;;;;;;;;;;;;;;-140.72;100.00;52804.81;6276164;22;20334;-68
2023/08/30 03:21:15;;;;;;;;;;;;;;;-140.72;100.00;52766.25;6275971;22;20316;-68
2023/08/30 03:23:41;;;;;;;;;;;;;;;-140.72;100.00;52814.97;6275583;22;19961;-68
2023/08/30 03:26:09;;;;;;;;;;;;;;;-140.72;100.00;52798.72;6277504;22;20387;-68
2023/08/30 03:28:34;;;;;;;;;;;;;;;-140.72;100.00;52794.69;6277450;22;20394;-68
2023/08/30 03:31:00;;;;;;;;;;;;;;;-140.72;100.00;52788.59;6275872;22;19994;-68
2023/08/30 03:33:25;;;;;;;;;;;;;;;-140.72;100.00;52766.25;6277387;22;20028;-67
2023/08/30 03:35:50;;;;;;;;;;;;;;;-140.72;100.00;52786.56;6273894;22;19919;-68
2023/08/30 03:38:15;;;;;;;;;;;;;;;-140.72;100.00;52760.19;6274574;22;19919;-68
2023/08/30 03:40:41;;;;;;;;;;;;;;;-140.72;100.00;52782.50;6275957;22;19911;-67
2023/08/30 03:43:06;;;;;;;;;;;;;;;-140.72;100.00;52808.88;6276462;22;20252;-69
2023/08/30 03:45:34;;;;;;;;;;;;;;;-140.72;100.00;52796.72;6276175;22;19918;-68
2023/08/30 03:47:59;;;;;;;;;;;;;;;-140.72;100.00;52778.44;6300869;22;19915;-69
2023/08/30 03:50:24;;;;;;;;;;;;;;;-140.72;100.00;52768.28;6274045;22;19947;-68
2023/08/30 03:52:49;;;;;;;;;;;;;;;-140.72;100.00;52770.31;6276284;22;19965;-69
2023/08/30 03:55:15;;;;;;;;;;;;;;;-140.72;100.00;52762.22;6275892;22;19919;-68
2023/08/30 03:57:40;;;;;;;;;;;;;;;-140.72;100.00;52790.63;6275444;22;19991;-68
2023/08/30 04:00:12;;;;;;;;;;;;;;;-140.72;100.00;52814.97;6275234;22;19961;-69
2023/08/30 04:02:37;;;;;;;;;;;;;;;-140.72;100.00;52814.97;6276909;22;19915;-68
2023/08/30 04:05:03;;;;;;;;;;;;;;;-140.72;100.00;52800.75;6275416;22;19911;-68
2023/08/30 04:07:28;;;;;;;;;;;;;;;-140.72;100.00;52780.47;6300825;22;19957;-69
2023/08/30 04:09:53;;;;;;;;;;;;;;;-140.72;100.00;52806.84;6276564;22;20308;-69
2023/08/30 04:12:19;;;;;;;;;;;;;;;-140.72;100.00;52788.59;6276812;22;20390;-69
2023/08/30 04:14:44;;;;;;;;;;;;;;;-140.72;100.00;52804.81;6276605;22;20407;-68
2023/08/30 04:17:09;;;;;;;;;;;;;;;-140.72;100.00;52790.63;6276780;22;19911;-69
2023/08/30 04:19:34;;;;;;;;;;;;;;;-140.72;100.00;52796.72;6276965;22;20039;-68
2023/08/30 04:21:59;;;;;;;;;;;;;;;-140.72;100.00;52794.69;6276225;22;19961;-69
2023/08/30 04:24:25;;;;;;;;;;;;;;;-140.72;100.00;52774.38;6277036;22;19912;-68
2023/08/30 04:26:54;;;;;;;;;;;;;;;-140.72;100.00;52784.53;6300666;22;19934;-68
2023/08/30 04:29:19;;;;;;;;;;;;;;;-140.72;100.00;52798.72;6276996;22;19964;-67
2023/08/30 04:31:44;;;;;;;;;;;;;;;-140.72;100.00;52764.25;6276787;22;19911;-73
2023/08/30 04:34:09;;;;;;;;;;;;;;;-140.72;100.00;52788.59;6275510;22;19973;-72
2023/08/30 04:36:35;;;;;;;;;;;;;;;-140.72;100.00;52782.50;6275280;22;19907;-72
2023/08/30 04:39:00;;;;;;;;;;;;;;;-140.72;100.00;52829.19;6277170;22;19911;-72
2023/08/30 04:44:27;;;;;;;;;;;;;;;-140.72;100.00;52792.66;6277394;22;19942;-73
2023/08/30 04:46:52;;;;;;;;;;;;;;;-140.72;100.00;52780.47;6275119;22;20315;-73
2023/08/30 04:49:17;;;;;;;;;;;;;;;-140.72;100.00;52802.78;6277789;22;19911;-73
2023/08/30 04:51:43;;;;;;;;;;;;;;;-140.72;100.00;52756.13;6277405;22;19912;-71
2023/08/30 04:54:08;;;;;;;;;;;;;;;-140.72;100.00;52762.22;6275194;22;19911;-71
2023/08/30 04:56:34;;;;;;;;;;;;;;;-140.72;100.00;52754.09;6300933;22;19977;-72
2023/08/30 04:59:03;;;;;;;;;;;;;;;-140.72;100.00;52786.56;6275277;22;20240;-72
2023/08/30 05:01:28;;;;;;;;;;;;;;;-140.72;100.00;52778.44;6301265;22;20317;-72
2023/08/30 05:04:01;;;;;;;;;;;;;;;-140.72;100.00;52756.13;6276654;22;19911;-71
2023/08/30 05:06:26;;;;;;;;;;;;;;;-140.72;100.00;52741.91;6301184;22;19911;-73
2023/08/30 05:09:24;;;;;;;;;;;;;;;-140.72;100.00;52758.16;6275420;22;19960;-71
2023/08/30 05:11:50;;;;;;;;;;;;;;;-140.72;100.00;52756.13;6277249;22;19939;-68
2023/08/30 05:14:15;;;;;;;;;;;;;;;-140.72;100.00;52788.59;6301154;22;19930;-68
2023/08/30 05:16:40;;;;;;;;;;;;;;;-140.72;100.00;52837.28;6276515;22;20328;-68
2023/08/30 05:19:06;;;;;;;;;;;;;;;-140.72;100.00;52800.75;6277031;22;20359;-70
2023/08/30 05:21:31;;;;;;;;;;;;;;;-140.72;100.00;52808.88;6275199;22;19915;-67
2023/08/30 05:23:58;;;;;;;;;;;;;;;-140.72;100.00;52794.69;6277343;22;20313;-67
2023/08/30 05:26:25;;;;;;;;;;;;;;;-140.72;100.00;52835.25;6274946;22;19912;-67
2023/08/30 05:28:51;;;;;;;;;;;;;;;-140.72;100.00;52833.22;6276303;22;19911;-66
2023/08/30 05:31:18;;;;;;;;;;;;;;;-140.72;100.00;52814.97;6277263;22;19953;-67
2023/08/30 05:33:43;;;;;;;;;;;;;;;-140.72;100.00;52835.25;6278797;22;19982;-67
2023/08/30 05:36:08;;;;;;;;;;;;;;;-140.72;100.00;52774.38;6279024;22;19915;-66
2023/08/30 05:38:33;;;;;;;;;;;;;;;-140.72;100.00;52837.28;6278606;22;19911;-66
2023/08/30 05:40:59;;;;;;;;;;;;;;;-140.72;100.00;52798.72;6278678;22;19918;-66
2023/08/30 05:43:24;;;;;;;;;;;;;;;-140.72;100.00;52825.13;6278503;22;19919;-66
2023/08/30 05:45:49;;;;;;;;;;;;;;;-140.72;100.00;52768.28;6278487;22;20297;-66
2023/08/30 05:48:14;;;;;;;;;;;;;;;-140.72;100.00;52825.13;6279140;22;19973;-66
2023/08/30 05:50:41;;;;;;;;;;;;;;;-140.72;100.00;52837.28;6278800;22;19912;-67
2023/08/30 05:53:08;;;;;;;;;;;;;;;-140.72;100.00;52794.69;6275375;22;19930;-66
2023/08/30 05:55:34;;;;;;;;;;;;;;;-140.72;100.00;52825.13;6301986;22;19912;-66
2023/08/30 05:57:59;;;;;;;;;;;;;;;-140.72;100.00;52814.97;6277631;22;19915;-67
2023/08/30 06:00:25;;;;;;;;;;;;;;;-140.72;100.00;52792.66;6276724;22;20363;-67
2023/08/30 06:02:51;;;;;;;;;;;;;;;-140.72;100.00;52776.41;6278629;22;20308;-67
2023/08/30 06:05:16;;;;;;;;;;;;;;;-140.72;100.00;52802.78;6276891;22;19922;-68
2023/08/30 06:07:41;;;;;;;;;;;;;;;-140.72;100.00;52859.63;6278549;22;19911;-67
2023/08/30 06:10:07;;;;;;;;;;;;;;;-140.72;100.00;52845.41;6277981;22;20332;-69
2023/08/30 06:12:34;;;;;;;;;;;;;;;-140.72;100.00;52790.63;6277861;22;19911;-68
2023/08/30 06:15:00;;;;;;;;;;;;;;;-140.72;100.00;52831.19;6278417;22;19964;-69
2023/08/30 06:17:25;;;;;;;;;;;;;;;-140.72;100.00;52780.47;6278427;22;19912;-67
2023/08/30 06:19:51;;;;;;;;;;;;;;;-140.72;100.00;52817.00;6275971;22;19961;-67
2023/08/30 06:22:17;;;;;;;;;;;;;;;-140.72;100.00;52778.44;6277908;22;19919;-68
2023/08/30 06:24:42;;;;;;;;;;;;;;;-140.72;100.00;52764.25;6277527;22;19911;-67
2023/08/30 06:27:07;;;;;;;;;;;;;;;-140.72;100.00;52794.69;6277673;22;19918;-67
2023/08/30 06:29:32;;;;;;;;;;;;;;;-140.72;100.00;52796.72;6302519;22;19919;-67
2023/08/30 06:31:58;;;;;;;;;;;;;;;-140.72;100.00;52800.75;6278291;22;19911;-67
2023/08/30 06:34:23;;;;;;;;;;;;;;;-140.72;100.00;52752.06;6277560;22;19918;-67
2023/08/30 06:36:48;;;;;;;;;;;;;;;-140.72;100.00;52821.06;6277605;22;20337;-66
2023/08/30 06:39:14;;;;;;;;;;;;;;;-140.72;100.00;52792.66;6277749;22;19912;-66
2023/08/30 06:41:39;;;;;;;;;;;;;;;-140.72;100.00;52806.84;6301014;22;19911;-78
2023/08/30 06:44:05;;;;;;;;;;;;;;;-140.72;100.00;52782.50;6264021;22;20319;-67
2023/08/30 06:46:44;;;;;;;;;;;;;;;-140.72;100.00;52776.41;6245496;23;19912;-67
2023/08/30 06:49:11;;;;;;;;;;;;;;;-140.72;100.00;52776.41;6244249;23;19915;-67
2023/08/30 06:51:37;;;;;;;;;;;;;;;-140.72;100.00;52817.00;6247234;22;19915;-66
2023/08/30 06:54:02;;;;;;;;;;;;;;;-140.72;100.00;52819.03;6246532;23;20393;-67
2023/08/30 06:56:27;;;;;;;;;;;;;;;-140.72;100.00;52756.13;6247720;23;20581;-67
2023/08/30 06:58:52;;;;;;;;;;;;;;;-140.72;100.00;52743.94;6244213;23;19912;-66
2023/08/30 07:01:18;;;;;;;;;;;;;;;-140.72;100.00;52780.47;6270654;22;19959;-67
2023/08/30 07:03:43;;;;;;;;;;;;;;;-140.72;100.00;52750.03;6245976;22;19911;-69
2023/08/30 07:06:09;;;;;;;;;;;;;;;-140.72;100.00;52792.66;6240509;23;20277;-68
2023/08/30 07:08:34;;;;;;;;;;;;;;;-140.72;100.00;52792.66;6245808;22;19912;-69
2023/08/30 07:11:00;;;;;;;;;;;;;;;-140.72;100.00;52768.28;6246640;23;19935;-69
2023/08/30 07:13:25;;;;;;;;;;;;;;;-140.72;100.00;52796.72;6244762;22;19912;-68
2023/08/30 07:16:03;;;;;;;;;;;;;;;-140.72;100.00;52772.34;6243616;23;19919;-69
2023/08/30 07:18:28;;;;;;;;;;;;;;;-140.72;100.00;52802.78;6247446;23;19939;-69
2023/08/30 07:20:54;;;;;;;;;;;;;;;-140.72;100.00;52754.09;6247396;23;20355;-69
2023/08/30 07:23:19;;;;;;;;;;;;;;;-140.72;100.00;52776.41;6244130;23;19950;-69
2023/08/30 07:25:44;;;;;;;;;;;;;;;-140.72;100.00;52798.72;6246496;23;20310;-69
2023/08/30 07:28:10;;;;;;;;;;;;;;;-140.72;100.00;52776.41;6242903;23;19912;-74
2023/08/30 07:30:35;;;;;;;;;;;;;;;-140.72;100.00;52786.56;6243471;23;19911;-68
2023/08/30 07:33:00;;;;;;;;;;;;;;;-140.72;100.00;52776.41;6244338;23;19943;-68
2023/08/30 07:35:26;;;;;;;;;;;;;;;-140.72;100.00;52776.41;6241895;23;20247;-69
2023/08/30 07:37:51;;;;;;;;;;;;;;;-140.72;100.00;52790.63;6243309;23;19919;-69
2023/08/30 07:40:16;;;;;;;;;;;;;;;-140.72;100.00;52794.69;6244339;23;19912;-69
2023/08/30 07:42:41;;;;;;;;;;;;;;;-140.72;100.00;52796.72;6243596;23;19919;-68
2023/08/30 07:45:07;;;;;;;;;;;;;;;-140.72;100.00;52768.28;6245135;22;19916;-69
2023/08/30 07:47:33;;;;;;;;;;;;;;;-140.72;100.00;52784.53;6245360;22;19916;-69
2023/08/30 07:49:58;;;;;;;;;;;;;;;-140.72;100.00;52776.41;6244050;23;19918;-69
2023/08/30 07:52:23;;;;;;;;;;;;;;;-140.72;100.00;52792.66;6243805;23;19911;-69
2023/08/30 07:54:48;;;;;;;;;;;;;;;-140.72;100.00;52768.28;6244833;23;19922;-68
2023/08/30 07:57:13;;;;;;;;;;;;;;;-140.72;100.00;52776.41;6244644;23;19912;-70
2023/08/30 07:59:39;;;;;;;;;;;;;;;-140.72;100.00;52796.72;6245139;23;19915;-70
2023/08/30 08:02:06;;;;;;;;;;;;;;;-140.72;100.00;52796.72;6244864;23;19912;-68
2023/08/30 08:04:31;;;;;;;;;;;;;;;-140.72;100.00;52780.47;6246747;22;19912;-68
2023/08/30 08:06:56;;;;;;;;;;;;;;;-140.72;100.00;52766.25;6244897;22;19911;-69
2023/08/30 08:09:22;;;;;;;;;;;;;;;-140.72;100.00;52776.41;6244616;23;19922;-69
2023/08/30 08:11:50;;;;;;;;;;;;;;;-140.72;100.00;52752.06;6245519;23;19915;-69
2023/08/30 08:14:16;;;;;;;;;;;;;;;-140.72;100.00;52778.44;6244739;22;19958;-69
2023/08/30 08:16:41;;;;;;;;;;;;;;;-140.72;100.00;52723.66;6243786;23;19916;-69
2023/08/30 08:19:07;;;;;;;;;;;;;;;-140.72;100.00;52760.19;6242217;23;20307;-69
2023/08/30 08:21:32;;;;;;;;;;;;;;;-140.72;100.00;52752.06;6241911;23;19959;-69
2023/08/30 08:23:58;;;;;;;;;;;;;;;-140.72;100.00;52758.16;6243038;22;19916;-68
2023/08/30 08:26:23;;;;;;;;;;;;;;;-140.72;100.00;52796.72;6245975;23;19922;-69
2023/08/30 08:28:48;;;;;;;;;;;;;;;-140.72;100.00;52752.06;6245044;23;20376;-69
2023/08/30 08:31:13;;;;;;;;;;;;;;;-140.72;100.00;52707.41;6243899;23;20224;-69
2023/08/30 08:33:39;;;;;;;;;;;;;;;-140.72;100.00;52723.66;6244277;23;19912;-68
2023/08/30 08:36:04;;;;;;;;;;;;;;;-140.72;100.00;52723.66;6245680;23;19950;-69
2023/08/30 08:38:29;;;;;;;;;;;;;;;-140.72;100.00;52725.69;6245407;23;20314;-67
2023/08/30 08:41:01;;;;;;;;;;;;;;;-140.72;100.00;52711.47;6245312;23;19915;-67
2023/08/30 08:43:27;;;;;;;;;;;;;;;-140.72;100.00;52699.31;6245060;22;19964;-67
2023/08/30 08:45:54;;;;;;;;;;;;;;;-140.72;100.00;52672.91;6244697;22;20248;-67
2023/08/30 08:48:19;;;;;;;;;;;;;;;-140.72;100.00;52634.38;6240564;22;19923;-67
2023/08/30 08:50:46;;;;;;;;;;;;;;;-140.72;100.00;52622.19;6241138;23;19916;-67
2023/08/30 08:53:11;;;;;;;;;;;;;;;-140.72;100.00;52660.75;6239572;22;20259;-67
2023/08/30 08:55:37;;;;;;;;;;;;;;;-140.72;100.00;52664.81;6241773;23;19916;-67
2023/08/30 08:58:03;;;;;;;;;;;;;;;-140.72;100.00;52674.94;6242770;22;19987;-67
2023/08/30 09:00:29;;;;;;;;;;;;;;;-140.72;100.00;52630.31;6240353;23;19938;-67
2023/08/30 09:02:55;;;;;;;;;;;;;;;-140.72;100.00;52622.19;6244323;22;19912;-67
2023/08/30 09:05:21;;;;;;;;;;;;;;;-140.72;100.00;52553.19;6244187;22;19912;-67
2023/08/30 09:07:47;;;;;;;;;;;;;;;-140.72;100.00;52603.94;6247116;23;19980;-67
2023/08/30 09:10:12;;;;;;;;;;;;;;;-140.72;100.00;52541.03;6246867;22;19919;-67
2023/08/30 09:12:37;;;;;;;;;;;;;;;-140.72;100.00;52565.38;6246476;23;20230;-68
2023/08/30 09:15:04;;;;;;;;;;;;;;;-140.72;100.00;52559.28;6246916;23;19950;-68
2023/08/30 09:17:39;;;;;;;;;;;;;;;-140.72;100.00;52581.59;6247008;22;20336;-67
2023/08/30 09:20:07;;;;;;;;;;;;;;;-140.72;100.00;52555.22;6247078;22;19994;-67
2023/08/30 09:22:39;;;;;;;;;;;;;;;-140.72;100.00;52561.31;6246072;22;19987;-68
2023/08/30 09:25:06;;;;;;;;;;;;;;;-140.72;100.00;52555.22;6246241;22;19912;-68
2023/08/30 09:27:33;;;;;;;;;;;;;;;-140.72;100.00;52541.03;6246430;22;19918;-68
2023/08/30 09:29:58;;;;;;;;;;;;;;;-140.72;100.00;52524.78;6247611;23;19992;-68
2023/08/30 09:32:23;;;;;;;;;;;;;;;-140.72;100.00;52465.94;6247454;23;19912;-67
2023/08/30 09:34:49;;;;;;;;;;;;;;;-140.72;100.00;52498.41;6245513;23;19962;-67
2023/08/30 09:37:20;;;;;;;;;;;;;;;-140.72;100.00;52524.78;6248151;23;19999;-68
2023/08/30 09:39:50;;;;;;;;;;;;;;;-140.72;100.00;52541.03;6248467;22;19911;-68
2023/08/30 09:42:17;;;;;;;;;;;;;;;-140.72;100.00;52575.50;6247334;22;19915;-67
2023/08/30 09:44:42;;;;;;;;;;;;;;;-140.72;100.00;52482.16;6245573;22;19916;-68
2023/08/30 09:47:08;;;;;;;;;;;;;;;-140.72;100.00;52488.25;6245585;23;19954;-68
2023/08/30 09:49:38;;;;;;;;;;;;;;;-140.72;100.00;52427.38;6247362;22;20351;-68
2023/08/30 09:52:06;;;;;;;;;;;;;;;-140.72;100.00;52467.97;6244039;23;19915;-68
2023/08/30 09:54:32;;;;;;;;;;;;;;;-140.72;100.00;52486.22;6247121;22;19911;-69
2023/08/30 09:56:59;;;;;;;;;;;;;;;-140.72;100.00;52512.59;6244534;23;19915;-69
2023/08/30 09:59:25;;;;;;;;;;;;;;;-140.72;100.00;52534.94;6247049;22;19970;-71
2023/08/30 10:01:52;;;;;;;;;;;;;;;-140.72;100.00;52536.97;6246336;22;20324;-71
2023/08/30 10:04:18;;;;;;;;;;;;;;;-140.72;100.00;52563.34;6245162;23;19912;-69
2023/08/30 10:06:45;;;;;;;;;;;;;;;-140.72;100.00;52573.50;6244896;22;19912;-68
2023/08/30 10:09:10;;;;;;;;;;;;;;;-140.72;100.00;52567.41;6245011;22;19918;-69
2023/08/30 10:11:36;;;;;;;;;;;;;;;-140.72;100.00;52567.41;6245897;23;19912;-69
2023/08/30 10:14:07;;;;;;;;;;;;;;;-140.72;100.00;52565.38;6245467;23;19954;-67
2023/08/30 10:16:45;;;;;;;;;;;;;;;-140.72;100.00;52605.94;6247832;22;19912;-67
2023/08/30 10:19:21;;;;;;;;;;;;;;;-140.72;100.00;52638.41;6247206;22;19998;-68
2023/08/30 10:21:47;;;;;;;;;;;;;;;-140.72;100.00;52640.44;6247881;22;19912;-67
2023/08/30 10:24:15;;;;;;;;;;;;;;;-140.72;100.00;52711.47;6246884;22;19911;-67
2023/08/30 10:26:42;;;;;;;;;;;;;;;-140.72;100.00;52697.28;6246921;22;19939;-67
2023/08/30 10:29:08;;;;;;;;;;;;;;;-140.72;100.00;52689.16;6245588;23;20247;-67
2023/08/30 10:31:34;;;;;;;;;;;;;;;-140.72;100.00;52660.75;6246001;22;19919;-68
2023/08/30 10:33:59;;;;;;;;;;;;;;;-140.72;100.00;52644.50;6243467;22;20323;-67
2023/08/30 10:36:25;;;;;;;;;;;;;;;-140.72;100.00;52652.63;6244933;22;19918;-67
2023/08/30 10:38:51;;;;;;;;;;;;;;;-140.72;100.00;52614.06;6242898;23;19998;-67
2023/08/30 10:41:24;;;;;;;;;;;;;;;-140.72;100.00;52662.78;6244763;22;19918;-67
2023/08/30 10:43:51;;;;;;;;;;;;;;;-140.72;100.00;52587.69;6245042;22;20318;-67
2023/08/30 10:46:16;;;;;;;;;;;;;;;-140.72;100.00;52605.94;6246772;22;20247;-67
2023/08/30 10:48:42;;;;;;;;;;;;;;;-140.72;100.00;52581.59;6246567;23;19912;-67
2023/08/30 10:51:22;;;;;;;;;;;;;;;-140.72;100.00;52492.31;6247049;23;19915;-67
2023/08/30 10:53:57;;;;;;;;;;;;;;;-140.72;100.00;52512.59;6246939;22;19985;-67
2023/08/30 10:56:27;;;;;;;;;;;;;;;-140.72;100.00;52486.22;6245241;23;19912;-67
2023/08/30 10:58:52;;;;;;;;;;;;;;;-140.72;100.00;52453.75;6247568;22;19918;-69
2023/08/30 11:01:18;;;;;;;;;;;;;;;-140.72;100.00;52463.91;6245365;23;19955;-68
2023/08/30 11:03:44;;;;;;;;;;;;;;;-140.72;100.00;52461.88;6246837;22;20304;-68
2023/08/30 11:06:13;;;;;;;;;;;;;;;-140.72;100.00;52372.59;6246726;22;19946;-66
2023/08/30 11:08:39;;;;;;;;;;;;;;;-140.72;0.00;52348.25;6246629;22;19923;-68
2023/08/30 11:11:05;;;;;;;;;;;;;;;-140.72;0.00;52382.75;6246853;22;19958;-67
2023/08/30 11:13:30;;;;;;;;;;;;;;;-140.72;0.00;52307.66;6246440;22;19923;-67
2023/08/30 11:15:59;;;;;;;;;;;;;;;-140.72;0.00;52338.09;6244355;23;19911;-69
2023/08/30 11:18:24;;;;;;;;;;;;;;;-140.72;0.00;52384.78;6245874;22;19912;-68
2023/08/30 11:21:02;;;;;;;;;;;;;;;-140.72;0.00;52429.41;6245988;23;20272;-67
2023/08/30 11:23:27;;;;;;;;;;;;;;;-140.72;0.00;52419.28;6247299;22;19934;-67
2023/08/30 11:25:52;;;;;;;;;;;;;;;-140.72;0.00;52447.69;6243032;23;19987;-66
2023/08/30 11:28:22;;;;;;;;;;;;;;;-140.72;0.00;52352.31;6242976;22;19915;-68
2023/08/30 11:30:47;;;;;;;;;;;;;;;-140.72;0.00;52447.69;6245401;22;19915;-68
2023/08/30 11:33:12;;;;;;;;;;;;;;;-140.72;0.00;52307.66;6245540;23;20078;-68
2023/08/30 11:35:38;;;;;;;;;;;;;;;-140.72;0.00;52401.00;6244971;23;19962;-68
2023/08/30 11:38:03;;;;;;;;;;;;;;;-140.72;0.00;52403.03;6245935;22;20324;-68
2023/08/30 11:40:29;;;;;;;;;;;;;;;-140.72;0.00;52429.41;6244667;23;19934;-68
2023/08/30 11:42:54;;;;;;;;;;;;;;;-140.72;0.00;52459.84;6245849;23;19923;-68
2023/08/30 11:45:19;;;;;;;;;;;;;;;-140.72;0.00;52396.94;6245806;22;19952;-68
2023/08/30 11:47:45;;;;;;;;;;;;;;;-140.72;0.00;52291.44;6245445;23;19916;-69
2023/08/30 11:50:12;;;;;;;;;;;;;;;-140.72;0.00;52228.53;6244872;23;19998;-70
2023/08/30 11:52:38;;;;;;;;;;;;;;;-140.72;0.00;52228.53;6244100;22;19912;-69
2023/08/30 11:55:04;;;;;;;;;;;;;;;-140.72;0.00;52100.72;6243551;22;20197;-69
2023/08/30 11:57:32;;;;;;;;;;;;;;;-140.72;0.00;52285.34;6244889;22;19931;-69
2023/08/30 12:00:06;;;;;;;;;;;;;;;-140.72;0.00;52248.81;6244295;22;19915;-69
2023/08/30 12:02:32;;;;;;;;;;;;;;;-140.72;0.00;52153.47;6245708;22;19919;-69
2023/08/30 12:04:59;;;;;;;;;;;;;;;-140.72;0.00;52133.16;6245407;22;19919;-69
2023/08/30 12:07:25;;;;;;;;;;;;;;;-140.72;0.00;52084.47;6244241;23;19939;-69
2023/08/30 12:09:51;;;;;;;;;;;;;;;-140.72;0.00;52151.44;6244036;22;20332;-69
2023/08/30 12:12:16;;;;;;;;;;;;;;;-140.72;0.00;52192.00;6244146;23;20003;-70
2023/08/30 12:14:42;;;;;;;;;;;;;;;-140.72;0.00;52118.97;6245280;23;19912;-69
2023/08/30 12:17:08;;;;;;;;;;;;;;;-140.72;0.00;52297.53;6241692;22;19922;-69